Time;durP1;ratioP1;P1;durP2;ratioP2;P2;SDS_P1;SDS_P2;PMS_P1;PMS_P2;Temp;Humidity;BMP_temperature;BMP_pressure;BME280_temperature;BME280_humidity;BME280_pressure;Samples;Min_cycle;Max_cycle;Signal;HPM_P1;HPM_P2
2022/05/31 00:01:46;;;;;;;1.75;1.35;;;10.40;95.20;;;;;;5087368;28;20063;-80
2022/05/31 00:04:12;;;;;;;2.42;1.52;;;10.40;95.50;;;;;;5085956;28;20175;-79
2022/05/31 00:06:39;;;;;;;2.13;1.38;;;10.30;95.80;;;;;;5084244;28;20465;-79
2022/05/31 00:09:04;;;;;;;3.17;1.40;;;10.30;96.00;;;;;;5083438;28;21830;-80
2022/05/31 00:11:30;;;;;;;2.42;1.67;;;10.30;96.20;;;;;;5086682;28;20039;-80
2022/05/31 00:13:55;;;;;;;2.10;1.35;;;10.30;96.40;;;;;;5088757;28;20024;-80
2022/05/31 00:16:21;;;;;;;3.30;1.38;;;10.20;96.40;;;;;;5089567;28;20508;-79
2022/05/31 00:18:47;;;;;;;2.60;1.27;;;10.30;96.60;;;;;;5089704;28;20107;-80
2022/05/31 00:21:12;;;;;;;3.67;1.40;;;10.20;96.70;;;;;;5089875;28;20101;-80
2022/05/31 00:23:40;;;;;;;3.42;1.65;;;10.20;96.90;;;;;;5090140;28;20035;-79
2022/05/31 00:26:06;;;;;;;4.43;1.70;;;10.20;97.20;;;;;;5090731;28;20477;-80
2022/05/31 00:28:32;;;;;;;4.03;1.60;;;10.10;97.50;;;;;;5084704;28;20400;-80
2022/05/31 00:30:58;;;;;;;3.58;1.60;;;10.10;97.70;;;;;;5088996;28;20036;-80
2022/05/31 00:33:25;;;;;;;4.13;1.50;;;10.10;97.80;;;;;;5074918;28;20028;-80
2022/05/31 00:35:53;;;;;;;3.63;1.33;;;10.10;98.00;;;;;;5085005;28;20050;-80
2022/05/31 00:38:20;;;;;;;2.80;1.63;;;10.00;98.30;;;;;;5090082;28;20465;-80
2022/05/31 00:40:46;;;;;;;3.58;1.85;;;10.00;98.50;;;;;;5089074;28;20081;-79
2022/05/31 00:43:16;;;;;;;2.40;1.80;;;9.90;98.80;;;;;;5087821;28;20039;-79
2022/05/31 00:45:58;;;;;;;2.85;1.60;;;9.90;99.10;;;;;;5088040;28;20036;-79
2022/05/31 00:48:32;;;;;;;3.72;2.00;;;9.90;99.30;;;;;;5081613;28;20040;-79
2022/05/31 00:51:06;;;;;;;5.00;1.98;;;9.80;99.60;;;;;;5071527;28;20048;-79
2022/05/31 00:53:40;;;;;;;3.08;1.55;;;9.80;99.70;;;;;;5090155;28;20039;-79
2022/05/31 00:56:12;;;;;;;3.97;1.70;;;9.80;99.80;;;;;;5089601;28;20085;-79
2022/05/31 00:59:01;;;;;;;3.38;1.95;;;9.70;99.90;;;;;;5085309;28;20036;-81
2022/05/31 01:01:28;;;;;;;3.00;1.30;;;9.70;99.90;;;;;;5083884;28;20139;-80
2022/05/31 01:03:55;;;;;;;4.95;1.88;;;9.70;99.90;;;;;;5088746;28;20020;-81
2022/05/31 01:06:20;;;;;;;2.10;1.50;;;9.60;99.90;;;;;;5090388;28;20499;-81
2022/05/31 01:08:46;;;;;;;5.78;1.92;;;9.70;99.90;;;;;;5090111;28;20036;-81
2022/05/31 01:11:21;;;;;;;3.92;1.80;;;9.60;99.90;;;;;;5087003;28;20024;-81
2022/05/31 01:13:46;;;;;;;3.05;1.65;;;9.60;99.90;;;;;;5088146;28;20060;-80
2022/05/31 01:16:14;;;;;;;3.00;1.88;;;9.60;99.90;;;;;;5089480;28;20035;-79
2022/05/31 01:18:41;;;;;;;4.82;1.70;;;9.60;99.90;;;;;;5089617;28;20028;-80
2022/05/31 01:21:08;;;;;;;4.32;1.98;;;9.50;99.90;;;;;;5086531;28;20016;-80
2022/05/31 01:24:05;;;;;;;2.95;1.50;;;9.50;99.90;;;;;;5089949;28;20032;-80
2022/05/31 01:26:48;;;;;;;3.70;2.10;;;9.50;99.90;;;;;;5085417;28;20473;-78
2022/05/31 01:29:32;;;;;;;3.50;1.85;;;9.50;99.90;;;;;;5087038;28;20039;-80
2022/05/31 01:32:04;;;;;;;2.67;1.58;;;9.50;99.90;;;;;;5087352;28;20032;-81
2022/05/31 01:34:55;;;;;;;2.58;1.80;;;9.50;99.90;;;;;;5087138;28;20031;-80
2022/05/31 01:37:37;;;;;;;5.25;2.10;;;9.50;99.90;;;;;;5089413;28;20489;-79
2022/05/31 01:40:11;;;;;;;2.47;1.92;;;9.50;99.90;;;;;;5087888;28;20115;-80
2022/05/31 01:42:42;;;;;;;2.53;1.90;;;9.50;99.90;;;;;;5090915;28;20039;-80
2022/05/31 01:45:20;;;;;;;2.15;1.73;;;9.50;99.90;;;;;;5086129;28;20036;-80
2022/05/31 01:47:47;;;;;;;2.17;1.80;;;9.40;99.90;;;;;;5088636;28;20020;-80
2022/05/31 01:50:17;;;;;;;3.35;1.67;;;9.40;99.90;;;;;;5086945;28;20594;-80
2022/05/31 01:52:44;;;;;;;4.35;1.63;;;9.40;99.90;;;;;;5090244;28;20469;-80
2022/05/31 01:55:10;;;;;;;3.58;1.95;;;9.30;99.90;;;;;;5088862;28;20044;-81
2022/05/31 01:57:38;;;;;;;2.58;1.60;;;9.30;99.90;;;;;;5088472;28;20074;-79
2022/05/31 02:00:10;;;;;;;5.20;2.05;;;9.30;99.90;;;;;;5087377;28;20036;-81
2022/05/31 02:02:35;;;;;;;2.63;1.70;;;9.30;99.90;;;;;;5088940;28;20020;-80
2022/05/31 02:05:01;;;;;;;4.93;1.98;;;9.30;99.90;;;;;;5085619;28;20016;-79
2022/05/31 02:07:27;;;;;;;2.47;2.08;;;9.30;99.90;;;;;;5088414;28;20052;-79
2022/05/31 02:09:54;;;;;;;2.55;1.48;;;9.30;99.90;;;;;;5089079;28;20036;-80
2022/05/31 02:12:23;;;;;;;2.10;1.50;;;9.30;99.90;;;;;;5087696;28;20436;-81
2022/05/31 02:14:50;;;;;;;4.00;2.13;;;9.30;99.90;;;;;;5088363;28;20044;-81
2022/05/31 02:17:16;;;;;;;2.80;1.67;;;9.30;99.90;;;;;;5088926;28;20099;-80
2022/05/31 02:19:43;;;;;;;2.30;1.90;;;9.30;99.90;;;;;;5087176;28;20115;-79
2022/05/31 02:22:13;;;;;;;1.75;1.30;;;9.30;99.90;;;;;;5089284;28;20053;-78
2022/05/31 02:24:40;;;;;;;2.28;1.52;;;9.20;99.90;;;;;;5088910;28;20099;-79
2022/05/31 02:27:07;;;;;;;2.08;1.38;;;9.20;99.90;;;;;;5081792;28;20048;-79
2022/05/31 02:29:36;;;;;;;3.80;1.75;;;9.10;99.90;;;;;;5068686;28;20033;-80
2022/05/31 02:32:04;;;;;;;2.03;1.60;;;9.10;99.90;;;;;;5067191;28;20028;-79
2022/05/31 02:34:32;;;;;;;3.15;2.05;;;9.10;99.90;;;;;;5067775;28;20078;-79
2022/05/31 02:36:59;;;;;;;3.22;1.48;;;9.10;99.90;;;;;;5067385;28;20051;-78
2022/05/31 02:39:25;;;;;;;2.40;1.50;;;9.10;99.90;;;;;;5068261;28;20099;-78
2022/05/31 02:41:51;;;;;;;5.63;1.80;;;9.10;99.90;;;;;;5066709;28;20025;-79
2022/05/31 02:44:18;;;;;;;3.75;1.55;;;9.10;99.90;;;;;;5067642;28;20486;-79
2022/05/31 02:46:44;;;;;;;3.97;1.83;;;9.10;99.90;;;;;;5061528;28;20104;-79
2022/05/31 02:49:10;;;;;;;2.13;1.52;;;9.00;99.90;;;;;;5043933;28;20136;-78
2022/05/31 02:51:37;;;;;;;2.53;1.70;;;9.00;99.90;;;;;;5057071;28;20100;-78
2022/05/31 02:54:04;;;;;;;2.80;1.63;;;8.90;99.90;;;;;;5059662;28;20025;-78
2022/05/31 02:56:31;;;;;;;4.93;1.70;;;8.90;99.90;;;;;;5062501;28;20021;-79
2022/05/31 02:58:57;;;;;;;1.98;1.75;;;8.90;99.90;;;;;;5061491;28;20097;-80
2022/05/31 03:01:25;;;;;;;3.85;1.83;;;8.90;99.90;;;;;;5056726;28;20043;-80
2022/05/31 03:03:51;;;;;;;2.78;1.83;;;8.80;99.90;;;;;;5066880;28;20025;-79
2022/05/31 03:06:18;;;;;;;3.20;1.83;;;8.80;99.90;;;;;;5047034;28;20051;-79
2022/05/31 03:08:43;;;;;;;1.95;1.55;;;8.90;99.90;;;;;;5067117;28;20028;-79
2022/05/31 03:11:17;;;;;;;2.10;1.90;;;8.90;99.90;;;;;;5065688;28;20488;-79
2022/05/31 03:13:47;;;;;;;2.20;1.70;;;8.70;99.90;;;;;;5063918;28;20028;-79
2022/05/31 03:16:15;;;;;;;5.18;2.25;;;8.70;99.90;;;;;;5060712;28;20024;-79
2022/05/31 03:18:51;;;;;;;1.70;1.60;;;8.70;99.90;;;;;;5064697;28;20060;-79
2022/05/31 03:21:26;;;;;;;2.90;2.28;;;8.70;99.90;;;;;;5061502;28;20016;-78
2022/05/31 03:24:18;;;;;;;4.68;2.10;;;8.70;99.90;;;;;;5071183;28;20029;-78
2022/05/31 03:26:45;;;;;;;3.50;2.05;;;8.70;99.90;;;;;;5064032;28;20052;-78
2022/05/31 03:29:11;;;;;;;3.15;2.00;;;8.70;99.90;;;;;;5057336;28;20045;-78
2022/05/31 03:31:38;;;;;;;2.05;1.60;;;8.70;99.90;;;;;;5069535;28;20100;-78
2022/05/31 03:34:04;;;;;;;4.88;1.65;;;8.60;99.90;;;;;;5069786;28;20056;-78
2022/05/31 03:36:30;;;;;;;3.47;1.65;;;8.60;99.90;;;;;;5065567;28;20466;-78
2022/05/31 03:38:55;;;;;;;4.03;1.98;;;8.60;99.90;;;;;;5060621;28;20029;-79
2022/05/31 03:41:21;;;;;;;3.13;1.83;;;8.60;99.90;;;;;;5046730;28;20079;-79
2022/05/31 03:43:47;;;;;;;5.43;2.03;;;8.60;99.90;;;;;;5062667;28;20044;-78
2022/05/31 03:46:14;;;;;;;3.42;2.22;;;8.60;99.90;;;;;;5064646;28;20437;-80
2022/05/31 03:48:40;;;;;;;2.72;1.77;;;8.60;99.90;;;;;;5061018;28;20050;-79
2022/05/31 03:51:09;;;;;;;3.65;2.10;;;8.60;99.90;;;;;;5070072;28;20043;-78
2022/05/31 03:53:35;;;;;;;2.95;1.85;;;8.70;99.90;;;;;;5062667;28;20079;-78
2022/05/31 03:56:03;;;;;;;2.80;1.92;;;8.60;99.90;;;;;;5061965;28;20024;-79
2022/05/31 03:58:29;;;;;;;2.78;1.90;;;8.70;99.90;;;;;;5057918;28;20036;-79
2022/05/31 04:00:54;;;;;;;3.38;2.13;;;8.70;99.90;;;;;;5065846;28;20025;-80
2022/05/31 04:03:20;;;;;;;3.05;2.13;;;8.70;99.90;;;;;;5064535;28;20395;-80
2022/05/31 04:05:46;;;;;;;2.08;1.80;;;8.70;99.90;;;;;;5065423;28;20028;-78
2022/05/31 04:08:12;;;;;;;3.15;2.10;;;8.80;99.90;;;;;;5064247;28;20033;-77
2022/05/31 04:10:40;;;;;;;2.80;2.30;;;8.80;99.90;;;;;;5063786;28;20488;-79
2022/05/31 04:13:06;;;;;;;6.88;2.28;;;8.80;99.90;;;;;;5061071;28;20111;-76
2022/05/31 04:15:33;;;;;;;4.10;2.20;;;8.80;99.90;;;;;;5062472;28;20426;-74
2022/05/31 04:17:59;;;;;;;7.85;2.63;;;8.90;99.90;;;;;;5064781;28;20052;-75
2022/05/31 04:20:25;;;;;;;4.10;2.55;;;8.80;99.90;;;;;;5064853;28;20147;-73
2022/05/31 04:22:51;;;;;;;4.78;2.70;;;8.80;99.90;;;;;;5063892;28;20631;-73
2022/05/31 04:25:17;;;;;;;6.47;2.42;;;8.90;99.90;;;;;;5063973;28;20108;-74
2022/05/31 04:27:43;;;;;;;3.58;2.47;;;8.90;99.90;;;;;;5062762;28;20057;-75
2022/05/31 04:30:09;;;;;;;3.60;2.38;;;8.90;99.90;;;;;;5061210;28;20044;-72
2022/05/31 04:32:35;;;;;;;5.25;2.67;;;8.90;99.90;;;;;;5062514;28;20031;-72
2022/05/31 04:35:01;;;;;;;4.97;2.33;;;8.90;99.90;;;;;;5063037;28;20032;-75
2022/05/31 04:37:28;;;;;;;5.68;2.55;;;8.90;99.90;;;;;;5066327;28;20033;-73
2022/05/31 04:39:54;;;;;;;2.97;2.33;;;8.90;99.90;;;;;;5058458;28;20037;-73
2022/05/31 04:42:20;;;;;;;5.82;2.50;;;8.90;99.90;;;;;;5061553;28;20583;-73
2022/05/31 04:44:46;;;;;;;6.10;2.85;;;9.00;99.90;;;;;;5064751;28;20029;-73
2022/05/31 04:47:11;;;;;;;7.00;2.58;;;9.00;99.90;;;;;;5065683;28;20025;-74
2022/05/31 04:49:37;;;;;;;9.70;3.97;;;9.10;99.90;;;;;;5064462;28;20028;-73
2022/05/31 04:52:03;;;;;;;6.85;3.78;;;9.20;99.90;;;;;;5060942;28;20397;-76
2022/05/31 04:54:30;;;;;;;7.00;3.65;;;9.30;99.90;;;;;;5066299;28;20454;-74
2022/05/31 04:56:59;;;;;;;4.93;3.20;;;9.40;99.90;;;;;;5058426;28;20025;-74
2022/05/31 04:59:26;;;;;;;7.53;3.87;;;9.50;99.90;;;;;;5061979;28;20029;-73
2022/05/31 05:01:51;;;;;;;4.43;3.03;;;9.70;99.90;;;;;;5061348;28;20044;-73
2022/05/31 05:04:17;;;;;;;5.13;2.90;;;9.80;99.90;;;;;;5067390;28;20466;-72
2022/05/31 05:06:43;;;;;;;3.88;2.42;;;9.90;99.90;;;;;;5063315;28;20043;-72
2022/05/31 05:09:08;;;;;;;4.15;2.90;;;10.00;99.90;;;;;;5059841;28;20033;-72
2022/05/31 05:11:34;;;;;;;5.85;3.08;;;10.10;99.90;;;;;;5066608;28;20442;-72
2022/05/31 05:14:00;;;;;;;5.88;3.85;;;10.20;99.90;;;;;;5058315;28;20505;-73
2022/05/31 05:16:26;;;;;;;6.00;3.42;;;10.30;99.90;;;;;;5062661;28;20123;-77
2022/05/31 05:18:52;;;;;;;6.20;3.40;;;10.50;99.90;;;;;;5068725;28;20067;-76
2022/05/31 05:21:18;;;;;;;4.00;2.90;;;10.50;99.90;;;;;;5059997;28;20466;-76
2022/05/31 05:23:45;;;;;;;3.72;2.70;;;10.70;99.90;;;;;;5061689;28;20037;-82
2022/05/31 05:26:11;;;;;;;8.07;3.78;;;10.80;99.90;;;;;;5062266;28;20033;-83
2022/05/31 05:31:35;;;;;;;7.22;3.42;;;11.10;99.90;;;;;;5060137;28;20044;-80
2022/05/31 05:34:02;;;;;;;7.93;4.47;;;11.20;99.90;;;;;;5059843;28;20089;-80
2022/05/31 05:36:29;;;;;;;9.73;4.32;;;11.30;99.90;;;;;;5061660;28;20112;-82
2022/05/31 05:38:55;;;;;;;8.35;4.70;;;11.40;99.90;;;;;;5063414;28;20111;-74
2022/05/31 05:41:22;;;;;;;10.70;4.82;;;11.50;99.90;;;;;;5064387;28;20025;-73
2022/05/31 05:43:48;;;;;;;8.38;4.75;;;11.60;99.90;;;;;;5062080;28;20150;-81
2022/05/31 05:46:20;;;;;;;5.95;3.95;;;11.70;99.90;;;;;;5061505;28;20484;-76
2022/05/31 05:48:46;;;;;;;6.55;4.07;;;11.90;99.90;;;;;;5058135;28;20465;-72
2022/05/31 05:51:16;;;;;;;9.27;4.28;;;12.00;99.90;;;;;;5064308;28;20035;-79
2022/05/31 05:53:41;;;;;;;12.35;4.60;;;12.20;99.90;;;;;;5063891;28;20027;-81
2022/05/31 05:56:07;;;;;;;6.38;4.13;;;12.30;99.90;;;;;;5064950;28;20112;-78
2022/05/31 05:58:33;;;;;;;7.80;4.57;;;12.30;99.90;;;;;;5073048;28;20029;-82
2022/05/31 06:01:00;;;;;;;8.27;4.30;;;12.30;99.90;;;;;;5075812;28;20039;-78
2022/05/31 06:03:35;;;;;;;7.25;4.28;;;12.40;99.90;;;;;;5083368;28;20021;-79
2022/05/31 06:06:01;;;;;;;7.30;4.03;;;12.40;99.90;;;;;;5079624;28;20025;-79
2022/05/31 06:08:58;;;;;;;4.82;3.75;;;12.60;99.90;;;;;;5063437;28;20585;-81
2022/05/31 06:11:48;;;;;;;6.10;4.15;;;12.80;99.90;;;;;;5059397;28;20039;-82
2022/05/31 06:14:23;;;;;;;9.18;3.92;;;13.20;99.90;;;;;;5068146;28;20075;-82
2022/05/31 06:17:00;;;;;;;9.10;4.15;;;13.40;99.90;;;;;;5072554;28;20501;-83
2022/05/31 06:19:34;;;;;;;10.63;5.03;;;13.60;99.90;;;;;;5062687;28;20078;-82
2022/05/31 06:22:00;;;;;;;6.50;4.22;;;13.70;99.80;;;;;;5063043;28;20050;-80
2022/05/31 06:24:29;;;;;;;10.60;5.05;;;13.90;99.80;;;;;;5062377;28;20033;-79
2022/05/31 06:26:55;;;;;;;9.47;3.93;;;14.00;99.20;;;;;;5063289;28;20520;-76
2022/05/31 06:29:21;;;;;;;7.07;4.10;;;14.10;99.40;;;;;;5053275;28;20033;-74
2022/05/31 06:31:46;;;;;;;10.82;4.38;;;14.20;99.20;;;;;;5065866;28;20029;-75
2022/05/31 06:34:12;;;;;;;6.38;4.45;;;14.30;98.40;;;;;;5065922;28;20028;-74
2022/05/31 06:36:39;;;;;;;13.65;6.00;;;14.40;98.90;;;;;;5059625;28;20112;-80
2022/05/31 06:39:05;;;;;;;11.63;6.18;;;14.40;98.80;;;;;;5057528;28;20035;-78
2022/05/31 06:41:31;;;;;;;11.07;5.75;;;14.50;99.00;;;;;;5060427;28;20029;-78
2022/05/31 06:43:59;;;;;;;13.43;6.43;;;14.40;99.00;;;;;;5065503;28;20100;-77
2022/05/31 06:46:25;;;;;;;15.27;7.47;;;14.60;99.90;;;;;;5066473;28;20107;-75
2022/05/31 06:48:53;;;;;;;22.30;8.30;;;14.70;99.90;;;;;;5069374;28;20119;-77
2022/05/31 06:56:53;;;;;;;14.05;6.72;;;15.10;99.90;;;;;;5058571;28;20035;-77
2022/05/31 06:59:18;;;;;;;12.43;5.88;;;15.20;99.90;;;;;;5053538;28;20107;-78
2022/05/31 07:01:47;;;;;;;7.65;5.18;;;15.30;99.90;;;;;;5062059;28;20049;-82
2022/05/31 07:04:13;;;;;;;19.70;6.50;;;15.50;99.90;;;;;;5062285;28;20024;-75
2022/05/31 07:06:38;;;;;;;12.80;6.50;;;15.60;99.90;;;;;;5064783;28;20037;-75
2022/05/31 07:09:04;;;;;;;13.85;5.68;;;15.80;96.60;;;;;;5068841;28;20036;-74
2022/05/31 07:11:30;;;;;;;13.52;5.45;;;16.00;95.50;;;;;;5063060;28;20027;-75
2022/05/31 07:13:56;;;;;;;11.00;5.00;;;16.10;95.40;;;;;;5062789;28;20074;-75
2022/05/31 07:16:22;;;;;;;8.68;4.13;;;16.20;95.20;;;;;;5072701;28;20481;-75
2022/05/31 07:18:47;;;;;;;10.73;4.82;;;16.30;95.10;;;;;;5059935;28;20040;-75
2022/05/31 07:21:13;;;;;;;8.80;4.50;;;16.50;94.50;;;;;;5068228;28;20024;-75
2022/05/31 07:23:40;;;;;;;10.75;4.00;;;16.60;94.40;;;;;;5059971;28;20500;-75
2022/05/31 07:26:07;;;;;;;8.07;3.85;;;16.70;93.70;;;;;;5058701;28;20056;-74
2022/05/31 07:28:33;;;;;;;8.68;3.85;;;16.80;93.70;;;;;;5057255;28;20041;-75
2022/05/31 07:31:00;;;;;;;8.73;3.63;;;16.90;93.30;;;;;;5068180;28;20047;-75
2022/05/31 07:33:25;;;;;;;5.35;3.45;;;17.10;92.90;;;;;;5045214;28;20351;-75
2022/05/31 07:35:51;;;;;;;6.07;3.00;;;17.10;92.70;;;;;;5066034;28;20097;-75
2022/05/31 07:38:19;;;;;;;4.88;2.83;;;17.30;92.30;;;;;;5066955;28;20029;-75
2022/05/31 07:40:46;;;;;;;13.65;3.67;;;17.40;92.00;;;;;;5059490;28;20029;-75
2022/05/31 07:43:11;;;;;;;14.07;3.97;;;17.70;91.30;;;;;;5057971;28;20056;-75
2022/05/31 07:45:38;;;;;;;12.75;4.25;;;;;;;;;;5073902;28;20474;-75
2022/05/31 07:48:05;;;;;;;7.88;3.58;;;18.20;99.90;;;;;;5071871;28;20074;-74
2022/05/31 07:50:31;;;;;;;5.38;2.83;;;18.20;99.90;;;;;;5071383;28;20044;-74
2022/05/31 07:52:59;;;;;;;3.50;2.38;;;18.20;99.90;;;;;;5064842;28;20036;-75
2022/05/31 07:55:25;;;;;;;5.82;2.35;;;18.30;99.90;;;;;;5071969;28;20028;-74
2022/05/31 08:00:36;;;;;;;4.18;1.38;;;18.60;86.90;;;;;;5060114;28;20485;-75
2022/05/31 08:03:02;;;;;;;1.50;1.30;;;18.80;85.10;;;;;;5064854;28;20025;-74
2022/05/31 08:05:29;;;;;;;2.58;1.20;;;19.00;84.30;;;;;;5062749;28;20020;-74
2022/05/31 08:07:54;;;;;;;3.50;1.42;;;19.10;83.40;;;;;;5071821;28;20059;-74
2022/05/31 08:10:21;;;;;;;3.03;1.70;;;19.30;84.10;;;;;;5070134;28;20064;-73
2022/05/31 08:12:47;;;;;;;5.75;1.67;;;19.50;82.50;;;;;;5063139;28;20039;-74
2022/05/31 08:15:13;;;;;;;4.05;1.60;;;19.70;81.10;;;;;;5069091;28;20030;-73
2022/05/31 08:17:39;;;;;;;2.63;1.70;;;19.80;79.80;;;;;;5071412;28;20370;-73
2022/05/31 08:20:06;;;;;;;4.45;1.20;;;19.90;78.20;;;;;;5065586;28;20101;-73
2022/05/31 08:22:33;;;;;;;5.15;1.05;;;19.90;77.90;;;;;;5068237;28;20120;-73
2022/05/31 08:24:59;;;;;;;3.28;1.23;;;20.00;77.60;;;;;;5068757;28;20440;-74
2022/05/31 08:27:24;;;;;;;3.13;1.30;;;20.10;76.50;;;;;;5064107;28;20392;-73
2022/05/31 08:29:50;;;;;;;3.42;1.50;;;20.00;76.60;;;;;;5089360;28;20047;-73
2022/05/31 08:32:16;;;;;;;3.63;1.20;;;20.10;76.20;;;;;;5090109;28;20024;-73
2022/05/31 08:34:42;;;;;;;5.05;1.63;;;20.20;76.30;;;;;;5090557;28;20024;-73
2022/05/31 08:37:08;;;;;;;3.58;1.30;;;20.20;75.30;;;;;;5091183;28;20024;-74
2022/05/31 08:39:33;;;;;;;7.38;1.50;;;20.30;75.10;;;;;;5091135;28;20102;-73
2022/05/31 08:42:07;;;;;;;3.60;1.30;;;20.20;74.80;;;;;;5074678;28;20036;-73
2022/05/31 08:44:57;;;;;;;2.55;1.23;;;20.30;74.20;;;;;;5087837;28;20035;-74
2022/05/31 08:47:31;;;;;;;4.17;1.30;;;20.40;74.10;;;;;;5086111;28;20028;-73
2022/05/31 08:53:26;;;;;;;4.97;1.17;;;20.60;73.60;;;;;;5090173;28;20774;-74
2022/05/31 08:58:55;;;;;;;2.85;1.15;;;21.00;72.80;;;;;;5083641;28;20133;-74
2022/05/31 09:01:27;;;;;;;12.25;1.77;;;21.20;70.20;;;;;;5085767;28;20529;-73
2022/05/31 09:04:05;;;;;;;6.40;1.10;;;21.30;69.80;;;;;;5093016;28;20016;-73
2022/05/31 09:06:49;;;;;;;25.17;2.15;;;21.40;69.20;;;;;;5090148;28;20149;-74
2022/05/31 09:09:24;;;;;;;22.73;2.10;;;21.50;68.80;;;;;;5086527;28;20032;-74
2022/05/31 09:12:00;;;;;;;5.70;1.30;;;21.70;68.80;;;;;;5077898;28;20685;-74
2022/05/31 09:14:57;;;;;;;2.92;1.23;;;21.90;68.20;;;;;;5079797;28;20020;-72
2022/05/31 09:17:39;;;;;;;8.88;1.20;;;22.10;66.90;;;;;;5089100;28;20483;-73
2022/05/31 09:20:22;;;;;;;1.35;0.98;;;22.20;66.90;;;;;;5081427;28;20398;-73
2022/05/31 09:22:51;;;;;;;4.63;1.23;;;22.20;66.40;;;;;;5084389;28;20028;-73
2022/05/31 09:25:16;;;;;;;2.28;1.08;;;22.20;66.80;;;;;;5088126;28;20031;-73
2022/05/31 09:27:50;;;;;;;2.45;1.13;;;22.30;67.00;;;;;;5074128;28;20367;-73
2022/05/31 09:30:31;;;;;;;4.20;1.70;;;22.30;66.80;;;;;;5068298;28;20398;-73
2022/05/31 09:33:19;;;;;;;2.13;1.30;;;22.20;66.90;;;;;;5065272;28;20025;-73
2022/05/31 09:35:45;;;;;;;1.27;1.15;;;22.00;67.00;;;;;;5064329;28;20032;-73
2022/05/31 09:38:40;;;;;;;1.45;1.10;;;22.00;67.10;;;;;;5069086;28;20112;-75
2022/05/31 09:41:18;;;;;;;4.00;1.40;;;22.00;67.20;;;;;;5065189;28;20032;-73
2022/05/31 09:43:48;;;;;;;2.72;1.40;;;22.10;67.40;;;;;;5044900;28;20363;-73
2022/05/31 09:46:40;;;;;;;4.10;1.17;;;22.10;65.20;;;;;;5069819;28;20035;-73
2022/05/31 09:49:27;;;;;;;4.53;1.25;;;22.00;65.60;;;;;;5062059;28;20770;-72
2022/05/31 09:51:53;;;;;;;2.00;1.20;;;22.20;66.10;;;;;;5061833;28;20390;-73
2022/05/31 09:57:13;;;;;;;9.18;1.45;;;22.30;64.40;;;;;;5061613;28;20070;-73
2022/05/31 09:59:59;;;;;;;3.67;1.35;;;22.60;65.00;;;;;;5054749;28;20388;-73
2022/05/31 10:02:24;;;;;;;5.97;1.40;;;22.70;63.90;;;;;;5061714;28;20799;-73
2022/05/31 10:05:16;;;;;;;4.57;1.20;;;22.80;62.20;;;;;;5059319;28;20033;-73
2022/05/31 10:07:42;;;;;;;10.27;5.57;;;22.80;61.50;;;;;;5059289;28;20033;-73
2022/05/31 10:10:27;;;;;;;5.47;1.38;;;23.00;87.20;;;;;;5059208;28;20100;-73
2022/05/31 10:13:04;;;;;;;2.75;1.10;;;;;;;;;;5057031;28;20025;-73
2022/05/31 10:15:39;;;;;;;4.22;1.27;;;23.60;60.20;;;;;;5068188;28;20033;-72
2022/05/31 10:18:08;;;;;;;3.28;1.50;;;23.60;60.00;;;;;;5055195;28;20028;-73
2022/05/31 10:20:35;;;;;;;9.57;1.40;;;23.60;60.50;;;;;;5062918;28;20035;-72
2022/05/31 10:23:04;;;;;;;2.78;1.20;;;23.30;60.00;;;;;;5057897;28;20140;-72
2022/05/31 10:25:36;;;;;;;5.30;1.63;;;23.20;60.90;;;;;;5059424;28;20024;-73
2022/05/31 10:28:05;;;;;;;3.13;1.10;;;23.10;61.30;;;;;;5067348;28;20072;-72
2022/05/31 10:30:32;;;;;;;5.55;1.58;;;23.10;61.30;;;;;;5059076;28;20040;-73
2022/05/31 10:33:07;;;;;;;2.35;1.23;;;23.10;60.40;;;;;;5060693;28;20099;-72
2022/05/31 10:35:46;;;;;;;4.55;1.38;;;23.10;60.60;;;;;;5066537;28;20127;-72
2022/05/31 10:38:18;;;;;;;1.92;1.40;;;23.10;60.50;;;;;;5059192;28;20442;-73
2022/05/31 10:41:00;;;;;;;2.88;1.48;;;23.10;60.20;;;;;;5059290;28;20087;-72
2022/05/31 10:43:28;;;;;;;2.80;1.30;;;23.10;60.40;;;;;;5058737;28;20106;-73
2022/05/31 10:45:55;;;;;;;5.80;1.70;;;23.10;59.80;;;;;;5070770;28;20516;-74
2022/05/31 10:48:21;;;;;;;5.43;1.33;;;23.20;60.40;;;;;;5059991;28;20048;-71
2022/05/31 10:51:02;;;;;;;4.63;2.15;;;23.40;61.10;;;;;;5062433;28;20060;-71
2022/05/31 10:53:52;;;;;;;3.35;1.60;;;23.80;60.80;;;;;;5064405;28;20036;-75
2022/05/31 10:56:29;;;;;;;;;;;23.70;61.70;;;;;;5055100;28;20106;-76
2022/05/31 10:59:00;;;;;;;5.88;1.95;;;23.60;62.00;;;;;;5065520;28;19935;-76
2022/05/31 11:01:51;;;;;;;2.20;1.38;;;23.60;62.00;;;;;;5063353;28;20047;-76
2022/05/31 11:04:32;;;;;;;5.85;1.65;;;23.90;62.00;;;;;;5059659;28;20051;-76
2022/05/31 11:07:09;;;;;;;4.80;1.70;;;24.10;61.10;;;;;;5068836;28;20052;-77
2022/05/31 11:12:52;;;;;;;4.47;2.15;;;24.50;61.30;;;;;;5060983;28;20032;-76
2022/05/31 11:15:28;;;;;;;3.45;1.88;;;24.40;59.40;;;;;;5068648;28;20458;-77
2022/05/31 11:18:13;;;;;;;6.53;2.03;;;24.40;60.20;;;;;;5060992;28;20017;-75
2022/05/31 11:20:51;;;;;;;6.43;2.67;;;24.40;59.80;;;;;;5053868;28;20045;-76
2022/05/31 11:23:38;;;;;;;7.13;1.85;;;24.30;59.50;;;;;;5064880;28;20024;-77
2022/05/31 11:26:09;;;;;;;6.35;2.33;;;;;;;;;;5063074;28;20055;-76
2022/05/31 11:28:41;;;;;;;2.70;1.80;;;24.40;57.80;;;;;;5067914;28;20102;-76
2022/05/31 11:31:10;;;;;;;2.97;1.92;;;24.20;58.50;;;;;;5063618;28;20444;-75
2022/05/31 11:33:57;;;;;;;3.72;1.92;;;24.00;59.20;;;;;;5061832;28;20037;-76
2022/05/31 11:36:33;;;;;;;2.15;1.52;;;24.00;60.10;;;;;;5064651;28;20543;-75
2022/05/31 11:39:04;;;;;;;2.53;1.50;;;24.10;57.20;;;;;;5065679;28;20070;-76
2022/05/31 11:42:00;;;;;;;2.90;1.48;;;24.00;57.70;;;;;;5063814;28;20020;-75
2022/05/31 11:44:50;;;;;;;4.03;1.90;;;24.40;57.30;;;;;;5061424;28;20033;-75
2022/05/31 11:47:24;;;;;;;5.32;1.85;;;24.70;56.00;;;;;;5066379;28;20535;-77
2022/05/31 11:50:17;;;;;;;5.85;1.40;;;24.90;55.60;;;;;;5063279;28;20033;-76
2022/05/31 11:53:06;;;;;;;6.00;1.85;;;25.00;55.30;;;;;;5068612;28;20060;-76
2022/05/31 11:56:00;;;;;;;7.63;1.92;;;24.90;55.30;;;;;;5061421;28;20025;-75
2022/05/31 11:58:41;;;;;;;5.20;1.70;;;25.10;52.50;;;;;;5061237;28;20021;-75
2022/05/31 12:01:12;;;;;;;6.50;1.45;;;24.80;53.80;;;;;;5062496;28;20132;-76
2022/05/31 12:03:52;;;;;;;6.22;1.42;;;24.80;50.90;;;;;;5067143;28;20024;-75
2022/05/31 12:06:18;;;;;;;;;;;24.60;53.70;;;;;;5072487;28;20046;-74
2022/05/31 12:08:46;;;;;;;3.08;1.30;;;24.80;53.30;;;;;;5063452;28;19912;-74
2022/05/31 12:11:22;;;;;;;6.47;1.35;;;24.80;52.60;;;;;;5062209;28;20037;-74
2022/05/31 12:13:49;;;;;;;4.78;1.20;;;24.60;53.10;;;;;;5062213;28;20031;-74
2022/05/31 12:16:15;;;;;;;3.20;1.33;;;24.90;51.80;;;;;;5070647;28;20032;-74
2022/05/31 12:18:55;;;;;;;3.33;1.27;;;25.00;52.20;;;;;;5065490;28;20490;-74
2022/05/31 12:21:38;;;;;;;3.20;1.30;;;24.90;52.20;;;;;;5058886;28;20481;-74
2022/05/31 12:24:24;;;;;;;5.78;1.10;;;25.00;51.50;;;;;;5066597;28;20040;-74
2022/05/31 12:27:10;;;;;;;5.03;1.50;;;24.40;50.30;;;;;;5063256;28;20056;-74
2022/05/31 12:30:15;;;;;;;3.95;1.30;;;23.90;52.20;;;;;;5060866;28;20037;-75
2022/05/31 12:32:44;;;;;;;3.30;1.10;;;23.70;53.40;;;;;;5061169;28;20037;-75
2022/05/31 12:35:29;;;;;;;6.63;1.43;;;24.00;53.80;;;;;;5058328;28;20020;-74
2022/05/31 12:38:01;;;;;;;3.05;1.23;;;24.40;53.50;;;;;;5064088;28;20067;-74
2022/05/31 12:40:32;;;;;;;3.72;1.50;;;24.60;52.30;;;;;;5061544;28;20441;-75
2022/05/31 12:42:59;;;;;;;2.95;1.50;;;24.50;52.30;;;;;;5062926;28;20063;-75
2022/05/31 12:45:33;;;;;;;1.70;1.20;;;24.60;53.00;;;;;;5049201;28;20431;-75
2022/05/31 12:48:12;;;;;;;2.47;1.10;;;25.00;52.00;;;;;;5065344;28;20036;-75
2022/05/31 12:50:46;;;;;;;5.88;1.38;;;25.70;50.70;;;;;;5063230;28;20040;-75
2022/05/31 12:53:22;;;;;;;1.63;1.10;;;26.20;50.80;;;;;;5063521;28;20051;-75
2022/05/31 12:55:47;;;;;;;2.70;1.35;;;26.70;49.90;;;;;;5064647;28;20040;-75
2022/05/31 12:58:31;;;;;;;1.50;1.20;;;27.20;48.50;;;;;;5063520;28;20032;-74
2022/05/31 13:01:06;;;;;;;2.47;1.50;;;27.30;47.50;;;;;;5064431;28;20382;-75
2022/05/31 13:03:32;;;;;;;5.55;1.50;;;27.50;46.90;;;;;;5062368;28;20060;-74
2022/05/31 13:06:05;;;;;;;5.57;1.30;;;27.40;46.60;;;;;;5063949;28;20060;-74
2022/05/31 13:08:49;;;;;;;4.80;1.40;;;27.10;47.10;;;;;;5060089;28;20028;-75
2022/05/31 13:20:25;;;;;;;3.70;1.50;;;26.10;47.60;;;;;;5059708;28;20039;-75
2022/05/31 13:23:04;;;;;;;3.10;1.35;;;26.10;47.60;;;;;;5062568;28;20445;-74
2022/05/31 13:25:33;;;;;;;3.78;1.27;;;26.00;47.10;;;;;;5062961;28;20054;-75
2022/05/31 13:28:03;;;;;;;4.75;1.48;;;25.70;48.20;;;;;;5060419;28;20052;-75
2022/05/31 13:30:32;;;;;;;5.25;1.30;;;25.40;47.40;;;;;;5059459;28;20040;-75
2022/05/31 13:32:58;;;;;;;7.60;1.30;;;25.40;48.90;;;;;;5062385;28;20036;-75
2022/05/31 13:35:28;;;;;;;6.45;1.35;;;25.70;47.80;;;;;;5059583;28;20124;-75
2022/05/31 13:38:22;;;;;;;4.57;1.20;;;25.40;47.70;;;;;;5065856;28;20024;-75
2022/05/31 13:40:49;;;;;;;4.03;1.65;;;25.30;48.90;;;;;;5056465;28;20028;-75
2022/05/31 13:43:38;;;;;;;5.60;1.40;;;25.30;48.50;;;;;;5062870;28;20099;-74